Time;durP1;ratioP1;P1;durP2;ratioP2;P2;SDS_P1;SDS_P2;PMS_P1;PMS_P2;Temp;Humidity;BMP_temperature;BMP_pressure;BME280_temperature;BME280_humidity;BME280_pressure;Samples;Min_cycle;Max_cycle;Signal;HPM_P1;HPM_P2
2021/06/13 00:01:37;;;;;;;7.28;3.83;;;;;;;17.20;66.82;100313.53;5058864;27;101096;-79
2021/06/13 00:04:03;;;;;;;8.98;3.50;;;;;;;17.29;66.65;100319.22;5048417;27;96654;-78
2021/06/13 00:06:29;;;;;;;5.25;3.00;;;;;;;17.26;66.49;100324.72;5047283;27;96881;-79
2021/06/13 00:08:54;;;;;;;7.28;3.60;;;;;;;17.23;66.97;100319.59;5058450;27;101199;-78
2021/06/13 00:11:21;;;;;;;6.95;2.80;;;;;;;17.16;66.56;100325.28;5041915;27;98365;-78
2021/06/13 00:13:49;;;;;;;9.55;3.08;;;;;;;17.16;66.68;100324.41;5042420;27;96717;-79
2021/06/13 00:16:14;;;;;;;4.50;2.75;;;;;;;17.11;66.64;100326.50;5039756;27;96888;-78
2021/06/13 00:18:40;;;;;;;9.43;3.00;;;;;;;17.07;66.49;100327.63;5069258;27;98203;-80
2021/06/13 00:21:06;;;;;;;4.38;2.40;;;;;;;17.03;66.82;100331.41;5038698;27;98378;-78
2021/06/13 00:23:31;;;;;;;7.68;2.75;;;;;;;17.02;66.42;100335.88;5069945;27;96921;-78
2021/06/13 00:25:57;;;;;;;7.55;3.30;;;;;;;16.95;66.36;100332.72;5038557;27;97291;-78
2021/06/13 00:28:23;;;;;;;6.43;2.83;;;;;;;17.05;66.40;100334.84;5040191;27;97404;-78
2021/06/13 00:30:49;;;;;;;4.20;2.65;;;;;;;17.00;66.11;100329.81;5054463;27;101537;-78
2021/06/13 00:33:14;;;;;;;5.80;2.65;;;;;;;16.92;66.64;100334.72;5070129;27;96968;-78
2021/06/13 00:35:41;;;;;;;4.82;2.30;;;;;;;16.90;66.75;100333.94;5038884;27;96961;-80
2021/06/13 00:38:06;;;;;;;9.52;3.00;;;;;;;16.85;66.98;100339.53;5038819;27;101527;-78
2021/06/13 00:40:33;;;;;;;7.05;2.85;;;;;;;16.94;66.68;100338.97;5042014;27;101101;-78
2021/06/13 00:42:59;;;;;;;8.30;2.38;;;;;;;16.87;66.66;100345.59;5038269;27;96783;-78
2021/06/13 00:45:26;;;;;;;5.13;2.60;;;;;;;16.92;66.63;100340.84;5026387;27;96998;-78
2021/06/13 00:47:51;;;;;;;4.22;2.80;;;;;;;16.91;66.71;100347.13;5049168;27;98588;-78
2021/06/13 00:50:46;;;;;;;12.35;3.53;;;;;;;17.00;66.66;100348.38;5055824;27;97964;-78
2021/06/13 00:53:12;;;;;;;21.48;15.23;;;;;;;16.93;66.71;100349.69;5036890;27;98787;-79
2021/06/13 00:55:43;;;;;;;;;;;;;;;16.87;67.00;100344.72;5023078;27;96868;-81
2021/06/13 00:58:09;;;;;;;4.55;3.20;;;;;;;16.77;67.03;100347.09;5040634;27;101500;-78
2021/06/13 01:00:36;;;;;;;11.73;2.85;;;;;;;16.86;66.72;100354.47;5045124;27;97765;-78
2021/06/13 01:03:03;;;;;;;6.32;2.30;;;;;;;16.77;67.34;100359.50;5040997;27;96804;-78
2021/06/13 01:05:29;;;;;;;7.90;2.30;;;;;;;16.73;66.54;100351.69;5056259;27;97116;-78
2021/06/13 01:08:06;;;;;;;4.30;2.08;;;;;;;16.76;66.42;100356.00;5060791;27;98232;-78
2021/06/13 01:11:14;;;;;;;5.90;2.38;;;;;;;16.77;66.56;100359.50;5041307;27;101707;-78
2021/06/13 01:14:36;;;;;;;5.28;1.95;;;;;;;16.78;65.88;100356.72;5061583;27;96802;-82
2021/06/13 01:17:29;;;;;;;7.18;2.78;;;;;;;16.74;65.77;100363.13;4960286;28;97741;-78
2021/06/13 01:20:21;;;;;;;6.97;2.10;;;;;;;16.68;65.65;100366.16;5040382;27;101492;-78
2021/06/13 01:23:14;;;;;;;3.90;2.55;;;;;;;16.65;65.63;100369.84;5046160;27;98493;-78
2021/06/13 01:25:49;;;;;;;8.45;2.78;;;;;;;16.63;65.10;100366.41;5054788;27;97119;-80
2021/06/13 01:28:37;;;;;;;6.00;2.22;;;;;;;16.68;64.33;100364.34;5068491;27;97097;-78
2021/06/13 01:31:03;;;;;;;6.03;2.17;;;;;;;16.63;64.36;100352.31;5057112;27;100797;-78
2021/06/13 01:33:30;;;;;;;4.70;2.20;;;;;;;16.64;63.86;100351.34;5028120;27;100524;-78
2021/06/13 01:36:00;;;;;;;5.38;2.50;;;;;;;16.63;64.03;100358.47;5041267;27;96936;-78
2021/06/13 01:38:25;;;;;;;5.38;2.75;;;;;;;16.45;64.69;100349.78;5041596;27;97323;-78
2021/06/13 01:40:51;;;;;;;3.90;2.28;;;;;;;16.45;64.24;100346.28;5036619;27;101854;-78
2021/06/13 01:43:24;;;;;;;7.18;2.22;;;;;;;16.45;63.83;100356.88;5038188;27;101480;-78
2021/06/13 01:45:53;;;;;;;6.45;2.38;;;;;;;16.40;64.28;100353.66;5041463;27;97157;-79
2021/06/13 01:48:19;;;;;;;6.78;2.38;;;;;;;16.35;63.74;100350.41;5054810;27;96876;-79
2021/06/13 01:50:45;;;;;;;8.13;2.38;;;;;;;16.34;64.12;100351.34;5042001;27;98765;-79
2021/06/13 01:53:13;;;;;;;4.40;1.90;;;;;;;16.31;64.17;100349.72;5042415;27;101094;-78
2021/06/13 01:55:40;;;;;;;8.20;2.47;;;;;;;16.28;64.21;100352.56;5055428;27;97085;-78
2021/06/13 01:58:07;;;;;;;4.45;1.85;;;;;;;16.17;64.31;100358.44;5044698;27;96926;-78
2021/06/13 02:00:59;;;;;;;6.80;2.30;;;;;;;16.13;64.72;100351.63;5048883;27;97879;-78
2021/06/13 02:03:28;;;;;;;5.75;2.50;;;;;;;16.16;63.85;100359.41;5050015;27;101142;-78
2021/06/13 02:06:19;;;;;;;5.85;2.42;;;;;;;16.10;63.53;100367.69;5046546;27;97275;-78
2021/06/13 02:08:47;;;;;;;7.85;2.00;;;;;;;16.06;64.16;100371.47;5055971;27;96867;-78
2021/06/13 02:11:17;;;;;;;7.40;2.07;;;;;;;16.08;64.00;100364.28;5059790;27;102001;-78
2021/06/13 02:13:45;;;;;;;7.47;2.25;;;;;;;16.04;63.96;100368.91;5039093;27;99614;-79
2021/06/13 02:16:16;;;;;;;7.70;2.03;;;;;;;16.04;63.95;100373.34;5044478;27;96859;-79
2021/06/13 02:18:44;;;;;;;5.18;2.10;;;;;;;16.07;63.97;100373.16;5042913;27;97060;-79
2021/06/13 02:21:11;;;;;;;3.25;1.60;;;;;;;16.09;63.53;100384.53;5044888;27;97579;-78
2021/06/13 02:23:38;;;;;;;5.60;2.35;;;;;;;16.02;63.93;100389.28;5039776;27;101188;-78
2021/06/13 02:26:04;;;;;;;7.97;2.00;;;;;;;16.06;63.75;100395.31;5044525;27;96601;-78
2021/06/13 02:28:34;;;;;;;7.22;2.28;;;;;;;16.00;63.52;100393.00;5024643;27;96843;-78
2021/06/13 02:31:01;;;;;;;6.50;3.33;;;;;;;15.94;63.97;100390.66;5022611;27;101359;-78
2021/06/13 02:33:28;;;;;;;8.70;6.05;;;;;;;15.89;63.68;100396.22;5040990;27;101049;-78
2021/06/13 02:36:00;;;;;;;6.80;6.18;;;;;;;15.89;63.62;100398.03;5052982;27;97162;-78
2021/06/13 02:38:26;;;;;;;7.45;5.88;;;;;;;15.95;63.87;100408.28;5055917;27;97420;-77
2021/06/13 02:40:56;;;;;;;10.52;4.90;;;;;;;15.98;63.93;100400.16;5056115;27;99636;-78
2021/06/13 02:43:22;;;;;;;12.75;5.07;;;;;;;15.92;63.78;100401.34;5043461;27;100568;-78
2021/06/13 02:45:49;;;;;;;7.72;5.05;;;;;;;15.91;64.04;100404.94;5040924;27;96629;-79
2021/06/13 02:48:17;;;;;;;8.52;5.45;;;;;;;15.82;64.48;100408.06;5059694;27;96992;-78
2021/06/13 02:50:46;;;;;;;7.60;5.03;;;;;;;15.74;64.62;100405.84;5057570;27;98517;-80
2021/06/13 02:53:12;;;;;;;8.15;5.22;;;;;;;15.74;64.86;100416.44;5026792;27;101688;-78
2021/06/13 02:56:19;;;;;;;10.35;5.97;;;;;;;15.73;64.58;100413.88;5049149;27;97466;-78
2021/06/13 02:58:49;;;;;;;8.00;5.75;;;;;;;15.77;64.68;100415.44;5041668;27;96898;-79
2021/06/13 03:01:21;;;;;;;13.60;6.45;;;;;;;15.84;64.53;100428.22;5031301;27;99071;-78
2021/06/13 03:03:49;;;;;;;8.85;5.75;;;;;;;15.80;64.61;100431.13;5061597;27;98188;-79
2021/06/13 03:06:19;;;;;;;7.82;6.22;;;;;;;15.84;64.68;100436.16;5049556;27;97144;-78
2021/06/13 03:08:49;;;;;;;13.07;6.35;;;;;;;15.90;64.83;100436.78;5059498;27;97017;-79
2021/06/13 03:11:18;;;;;;;6.13;5.53;;;;;;;15.89;64.51;100443.88;5047297;27;100963;-78
2021/06/13 03:13:47;;;;;;;6.68;5.80;;;;;;;15.94;64.40;100438.31;5057877;27;101649;-81
2021/06/13 03:16:13;;;;;;;10.18;5.60;;;;;;;15.93;64.51;100444.56;5036302;27;96895;-78
2021/06/13 03:18:41;;;;;;;10.05;5.80;;;;;;;16.07;63.87;100450.81;5024131;27;96931;-78
2021/06/13 03:21:07;;;;;;;8.15;6.45;;;;;;;16.11;63.70;100448.84;5039433;27;101587;-78
2021/06/13 03:23:34;;;;;;;9.70;6.10;;;;;;;16.15;63.33;100444.25;5022044;27;101554;-78
2021/06/13 03:26:02;;;;;;;6.97;5.45;;;;;;;16.17;63.22;100452.94;5055425;27;97038;-78
2021/06/13 03:28:31;;;;;;;9.07;5.78;;;;;;;16.19;63.34;100453.72;5023178;27;97197;-78
2021/06/13 03:30:57;;;;;;;7.07;5.80;;;;;;;16.17;63.09;100453.78;5049006;27;101429;-78
2021/06/13 03:33:23;;;;;;;8.93;6.05;;;;;;;16.14;63.42;100464.56;5055668;27;101279;-78
2021/06/13 03:35:50;;;;;;;8.68;5.63;;;;;;;16.10;63.26;100462.16;5038512;27;96911;-79
2021/06/13 03:38:16;;;;;;;9.93;6.50;;;;;;;16.12;63.60;100470.91;5051055;27;97015;-78
2021/06/13 03:40:42;;;;;;;9.15;7.10;;;;;;;16.06;63.30;100465.00;5042857;27;98578;-78
2021/06/13 03:43:08;;;;;;;10.93;6.70;;;;;;;16.05;63.11;100467.72;5025689;27;100927;-78
2021/06/13 03:45:34;;;;;;;10.27;6.85;;;;;;;16.13;63.02;100462.84;5037835;27;97291;-77
2021/06/13 03:48:01;;;;;;;10.93;6.32;;;;;;;16.25;62.72;100478.06;5035470;27;97117;-78
2021/06/13 03:50:27;;;;;;;7.82;5.53;;;;;;;16.23;61.63;100487.03;5053637;27;98270;-78
2021/06/13 03:52:53;;;;;;;10.32;6.90;;;;;;;16.17;61.36;100484.72;5052111;27;101216;-78
2021/06/13 03:55:18;;;;;;;7.55;5.90;;;;;;;16.35;61.36;100490.78;5037419;27;97217;-78
2021/06/13 03:57:49;;;;;;;10.55;6.68;;;;;;;16.22;60.62;100488.81;5054223;27;97292;-78
2021/06/13 04:00:16;;;;;;;9.63;6.72;;;;;;;16.39;60.46;100484.41;5019447;27;101753;-78
2021/06/13 04:02:45;;;;;;;6.90;6.30;;;;;;;16.59;59.51;100494.75;5039957;27;97550;-78
2021/06/13 04:05:13;;;;;;;8.35;6.60;;;;;;;16.71;59.73;100493.19;5046261;27;96725;-79
2021/06/13 04:07:41;;;;;;;9.73;6.95;;;;;;;16.66;59.60;100496.09;5019647;27;97481;-78
2021/06/13 04:10:07;;;;;;;10.30;6.43;;;;;;;16.51;59.84;100489.84;5042131;27;101703;-79
2021/06/13 04:12:34;;;;;;;9.32;7.18;;;;;;;16.60;59.39;100487.63;5036791;27;100023;-78
2021/06/13 04:15:00;;;;;;;9.18;7.40;;;;;;;16.55;59.62;100502.94;5053609;27;97199;-78
2021/06/13 04:17:26;;;;;;;15.27;6.70;;;;;;;16.40;59.37;100496.69;5060195;27;97270;-78
2021/06/13 04:19:52;;;;;;;9.07;7.30;;;;;;;16.42;59.41;100502.78;5054452;27;101416;-78
2021/06/13 04:22:19;;;;;;;11.45;7.40;;;;;;;16.53;59.08;100503.03;5059599;27;98344;-78
2021/06/13 04:24:47;;;;;;;9.05;6.18;;;;;;;16.63;58.68;100498.06;5056249;27;97182;-78
2021/06/13 04:27:13;;;;;;;7.18;6.30;;;;;;;16.75;58.22;100503.53;5074548;27;96700;-78
2021/06/13 04:29:40;;;;;;;11.15;7.03;;;;;;;16.82;58.25;100513.84;5047492;27;101821;-78
2021/06/13 04:32:10;;;;;;;10.30;6.28;;;;;;;16.93;57.90;100514.94;5038106;27;100258;-78
2021/06/13 04:34:37;;;;;;;8.95;5.85;;;;;;;17.05;57.86;100523.97;5048169;27;97216;-78
2021/06/13 04:37:04;;;;;;;7.57;6.88;;;;;;;17.13;57.11;100527.03;5038476;27;96902;-77
2021/06/13 04:39:32;;;;;;;9.52;7.10;;;;;;;17.20;57.25;100517.75;5047713;27;102151;-78
2021/06/13 04:41:57;;;;;;;10.65;7.05;;;;;;;17.23;56.78;100524.69;5055379;27;101607;-77
2021/06/13 04:44:23;;;;;;;11.02;6.47;;;;;;;17.38;56.17;100530.91;5043078;27;97082;-79
2021/06/13 04:46:49;;;;;;;8.48;5.35;;;;;;;17.29;56.55;100534.94;5059218;27;97012;-81
2021/06/13 04:49:14;;;;;;;11.35;6.80;;;;;;;17.39;56.44;100532.59;5075881;27;98178;-78
2021/06/13 04:51:43;;;;;;;11.90;6.65;;;;;;;17.58;56.39;100535.88;5059124;27;98356;-79
2021/06/13 04:54:19;;;;;;;7.30;6.30;;;;;;;17.68;56.86;100541.47;5042036;27;97068;-78
2021/06/13 04:57:06;;;;;;;8.48;6.53;;;;;;;18.02;56.26;100536.81;5076990;27;97276;-78
2021/06/13 04:59:32;;;;;;;9.77;6.88;;;;;;;18.07;56.07;100540.03;5075693;27;98120;-78
2021/06/13 05:01:59;;;;;;;10.50;6.60;;;;;;;18.05;56.28;100536.63;5047546;27;101429;-78
2021/06/13 05:04:24;;;;;;;11.60;6.05;;;;;;;18.15;56.33;100531.59;5052408;27;97058;-77
2021/06/13 05:06:50;;;;;;;11.82;6.45;;;;;;;18.39;55.85;100543.34;5048397;27;97274;-85
2021/06/13 05:09:15;;;;;;;9.68;6.97;;;;;;;18.36;55.55;100540.88;5076855;27;98023;-80
2021/06/13 05:11:41;;;;;;;10.15;6.25;;;;;;;18.16;56.03;100536.81;5058016;27;99117;-78
2021/06/13 05:14:07;;;;;;;9.18;6.47;;;;;;;18.00;56.34;100550.16;5058069;27;96816;-78
2021/06/13 05:16:33;;;;;;;8.05;6.85;;;;;;;17.80;56.47;100546.09;5055625;27;96910;-77
2021/06/13 05:18:58;;;;;;;7.78;6.63;;;;;;;17.59;57.36;100557.97;5070713;27;98485;-77
2021/06/13 05:21:24;;;;;;;9.27;6.97;;;;;;;17.60;57.51;100557.03;5058282;27;97881;-77
2021/06/13 05:23:49;;;;;;;8.18;6.65;;;;;;;17.61;57.38;100561.38;5075398;27;96800;-79
2021/06/13 05:26:15;;;;;;;11.80;6.70;;;;;;;17.52;57.50;100560.13;5058665;27;96992;-78
2021/06/13 05:28:40;;;;;;;12.35;6.40;;;;;;;17.50;57.75;100564.66;5041021;27;101904;-77
2021/06/13 05:31:06;;;;;;;11.70;7.57;;;;;;;17.46;57.50;100568.47;5057127;27;101621;-77
2021/06/13 05:33:32;;;;;;;11.52;6.57;;;;;;;17.52;57.04;100565.44;5058904;27;96702;-77
2021/06/13 05:35:58;;;;;;;11.80;6.97;;;;;;;17.67;56.96;100568.97;5037770;27;96842;-77
2021/06/13 05:38:24;;;;;;;7.90;6.53;;;;;;;17.67;56.89;100571.63;5048778;27;101653;-77
2021/06/13 05:40:50;;;;;;;8.20;6.70;;;;;;;17.83;56.16;100576.91;5074541;27;101747;-81
2021/06/13 05:43:16;;;;;;;10.48;6.30;;;;;;;17.89;55.99;100576.56;5075637;27;96734;-77
2021/06/13 05:45:42;;;;;;;11.68;7.30;;;;;;;17.87;55.40;100573.97;5055072;27;97760;-77
2021/06/13 05:48:08;;;;;;;12.02;6.28;;;;;;;17.96;55.23;100582.34;5053466;27;101261;-77
2021/06/13 05:50:34;;;;;;;14.05;6.68;;;;;;;18.20;54.63;100582.63;5057312;27;101889;-77
2021/06/13 05:53:00;;;;;;;16.42;6.07;;;;;;;18.29;54.19;100568.78;5057354;27;96853;-77
2021/06/13 05:55:26;;;;;;;8.02;6.80;;;;;;;18.53;52.48;100574.38;5031204;27;97011;-78
2021/06/13 05:57:52;;;;;;;7.25;6.15;;;;;;;18.55;52.24;100578.63;5036328;27;101611;-79
2021/06/13 06:00:25;;;;;;;10.40;6.47;;;;;;;18.92;51.69;100583.44;5056758;27;101372;-77
2021/06/13 06:02:51;;;;;;;9.27;6.18;;;;;;;20.24;48.78;100587.88;5057436;27;96738;-78
2021/06/13 06:05:18;;;;;;;9.18;5.65;;;;;;;19.99;49.75;100596.75;5037888;27;96929;-78
2021/06/13 06:07:44;;;;;;;4.82;2.35;;;;;;;19.54;49.99;100596.22;5051978;27;101617;-77
2021/06/13 06:10:11;;;;;;;7.93;2.53;;;;;;;19.32;50.02;100602.97;5052797;27;101319;-77
2021/06/13 06:12:37;;;;;;;5.35;2.35;;;;;;;19.16;50.76;100608.44;5038685;27;96803;-77
2021/06/13 06:15:08;;;;;;;5.53;2.00;;;;;;;19.47;49.81;100610.91;5039705;27;97369;-77
2021/06/13 06:17:34;;;;;;;8.77;2.90;;;;;;;19.98;48.71;100606.53;5057358;27;98487;-77
2021/06/13 06:20:00;;;;;;;9.27;2.70;;;;;;;20.12;48.60;100603.75;5055874;27;101394;-78
2021/06/13 06:22:26;;;;;;;5.65;2.63;;;;;;;19.86;49.71;100621.53;5040505;27;97168;-78
2021/06/13 06:24:51;;;;;;;7.78;2.38;;;;;;;19.73;49.08;100607.38;5057146;27;97111;-81
2021/06/13 06:27:17;;;;;;;6.35;2.40;;;;;;;19.36;49.07;100616.94;5037501;27;101976;-78
2021/06/13 06:29:42;;;;;;;8.27;2.42;;;;;;;19.44;48.38;100617.28;5028961;27;101803;-78
2021/06/13 06:32:08;;;;;;;5.13;2.85;;;;;;;21.22;46.08;100612.88;5052070;27;97003;-78
2021/06/13 06:34:34;;;;;;;5.60;2.65;;;;;;;22.11;43.83;100608.81;5053961;27;96885;-78
2021/06/13 06:36:59;;;;;;;10.98;2.50;;;;;;;21.69;44.08;100614.66;5052030;27;101164;-78
2021/06/13 06:39:25;;;;;;;7.43;2.47;;;;;;;20.62;45.34;100625.19;5045307;27;100997;-78
2021/06/13 06:41:51;;;;;;;7.97;2.53;;;;;;;19.90;46.08;100627.53;5050578;27;96974;-82
2021/06/13 06:44:16;;;;;;;11.13;2.97;;;;;;;19.92;46.60;100635.41;5027115;27;96995;-78
2021/06/13 06:46:42;;;;;;;7.93;2.22;;;;;;;19.86;46.37;100626.88;5056370;27;102092;-78
2021/06/13 06:49:08;;;;;;;8.10;2.45;;;;;;;19.79;45.91;100625.59;5045429;27;100921;-79
2021/06/13 06:51:34;;;;;;;7.82;2.35;;;;;;;19.19;46.51;100626.84;5051295;27;97072;-77
2021/06/13 06:54:00;;;;;;;5.45;2.35;;;;;;;19.05;46.90;100628.72;5039720;27;96880;-77
2021/06/13 06:56:27;;;;;;;7.05;2.55;;;;;;;20.21;44.90;100630.75;5036106;27;101580;-78
2021/06/13 06:58:53;;;;;;;11.60;3.38;;;;;;;20.27;45.21;100632.97;5062780;27;97904;-79
2021/06/13 07:01:19;;;;;;;7.85;2.35;;;;;;;20.38;43.97;100637.56;5032112;27;97306;-78
2021/06/13 07:03:45;;;;;;;6.68;2.28;;;;;;;19.91;45.61;100642.56;5048426;27;96885;-77
2021/06/13 07:06:10;;;;;;;7.55;2.70;;;;;;;19.75;45.59;100649.88;5038187;27;101392;-78
2021/06/13 07:08:36;;;;;;;8.50;3.03;;;;;;;19.73;46.21;100647.31;5053110;27;101828;-78
2021/06/13 07:11:01;;;;;;;9.38;3.10;;;;;;;19.63;46.32;100646.19;5070504;27;97912;-78
2021/06/13 07:13:27;;;;;;;9.85;2.63;;;;;;;19.54;47.25;100644.97;5057656;27;96874;-78
2021/06/13 07:15:53;;;;;;;8.30;2.78;;;;;;;19.65;47.10;100645.16;5036372;27;101855;-79
2021/06/13 07:18:18;;;;;;;5.30;2.33;;;;;;;19.53;47.04;100653.94;5048437;27;101588;-80
2021/06/13 07:20:44;;;;;;;7.90;2.63;;;;;;;19.41;47.46;100652.94;5018993;27;97463;-80
2021/06/13 07:23:09;;;;;;;7.18;3.05;;;;;;;19.31;47.43;100659.81;5063208;27;98509;-79
2021/06/13 07:25:36;;;;;;;7.05;2.65;;;;;;;19.51;47.22;100658.50;5056770;27;98575;-79
2021/06/13 07:28:02;;;;;;;5.38;2.60;;;;;;;20.17;45.78;100656.75;5040956;27;101136;-80
2021/06/13 07:30:27;;;;;;;8.45;2.60;;;;;;;21.00;44.51;100661.59;5016536;27;96793;-79
2021/06/13 07:32:53;;;;;;;12.15;3.00;;;;;;;20.43;44.95;100667.44;5016388;27;97266;-80
2021/06/13 07:35:19;;;;;;;8.48;2.67;;;;;;;20.28;44.65;100664.88;5044113;27;98637;-80
2021/06/13 07:37:45;;;;;;;11.30;2.60;;;;;;;21.84;42.61;100674.09;5041733;27;101083;-80
2021/06/13 07:40:13;;;;;;;7.10;2.50;;;;;;;21.77;42.60;100672.88;5039357;27;97183;-80
2021/06/13 07:42:38;;;;;;;10.38;2.47;;;;;;;21.65;42.48;100677.31;5051239;27;97603;-80
2021/06/13 07:45:06;;;;;;;8.73;5.63;;;;;;;21.83;42.62;100679.56;5026103;27;101802;-79
2021/06/13 07:47:32;;;;;;;8.90;6.50;;;;;;;22.05;42.05;100689.47;5028563;27;101322;-80
2021/06/13 07:49:58;;;;;;;7.05;6.32;;;;;;;21.54;42.52;100684.41;5039595;27;97281;-79
2021/06/13 07:52:25;;;;;;;7.25;6.55;;;;;;;21.60;42.72;100684.81;5066658;27;96849;-79
2021/06/13 07:54:50;;;;;;;7.90;7.10;;;;;;;21.58;42.68;100688.56;5053784;27;100949;-79
2021/06/13 07:57:16;;;;;;;10.13;6.55;;;;;;;21.81;41.96;100687.69;5028593;27;101145;-79
2021/06/13 07:59:42;;;;;;;11.85;6.20;;;;;;;21.37;42.35;100689.19;5053459;27;96944;-80
2021/06/13 08:02:10;;;;;;;8.30;7.47;;;;;;;21.51;41.48;100695.34;5019606;27;97325;-79
2021/06/13 08:04:37;;;;;;;4.88;2.25;;;;;;;24.03;38.29;100678.97;5041147;27;101114;-80
2021/06/13 08:07:03;;;;;;;6.85;2.55;;;;;;;23.15;40.32;100690.69;5048949;27;101503;-79
2021/06/13 08:09:29;;;;;;;6.95;2.50;;;;;;;22.56;40.83;100698.00;5058355;27;97215;-80
2021/06/13 08:11:55;;;;;;;5.78;2.10;;;;;;;21.98;40.60;100693.59;5040173;27;97351;-80
2021/06/13 08:14:20;;;;;;;6.38;2.45;;;;;;;;;;5071034;27;98526;-83
2021/06/13 08:16:46;;;;;;;10.23;2.85;;;;;;;21.37;41.77;100707.03;5066430;27;101224;-84
2021/06/13 08:19:11;;;;;;;3.88;2.00;;;;;;;21.06;42.60;100711.03;5052930;27;97271;-82
2021/06/13 08:21:37;;;;;;;6.68;2.13;;;;;;;20.86;42.95;100710.66;5051618;27;96820;-83
2021/06/13 08:24:04;;;;;;;8.07;2.90;;;;;;;20.60;43.34;100716.97;5075401;27;97850;-85
2021/06/13 08:26:30;;;;;;;6.55;2.30;;;;;;;20.44;43.67;100722.47;5055448;27;99967;-81
2021/06/13 08:29:02;;;;;;;8.10;2.78;;;;;;;20.67;43.63;100721.75;5053809;27;96924;-82
2021/06/13 08:31:28;;;;;;;7.72;2.40;;;;;;;21.08;43.04;100720.63;5031711;27;96960;-84
2021/06/13 08:33:55;;;;;;;8.70;2.30;;;;;;;20.96;42.85;100727.69;5055164;27;101228;-81
2021/06/13 08:36:20;;;;;;;6.22;2.38;;;;;;;20.48;42.44;100735.47;5068952;27;98554;-88
2021/06/13 08:38:48;;;;;;;5.78;2.70;;;;;;;20.05;43.30;100730.41;5076801;27;97041;-90
2021/06/13 08:41:14;;;;;;;5.90;2.38;;;;;;;19.83;43.75;100738.09;5042468;27;97313;-82
2021/06/13 08:43:40;;;;;;;7.93;3.13;;;;;;;19.66;43.97;100736.53;5041667;27;98129;-81
2021/06/13 08:46:05;;;;;;;7.30;2.50;;;;;;;19.60;44.27;100737.75;5048290;27;100913;-87
2021/06/13 08:48:31;;;;;;;8.95;2.45;;;;;;;19.36;44.61;100742.88;5043501;27;96848;-83
2021/06/13 08:50:59;;;;;;;6.68;2.53;;;;;;;19.36;45.36;100752.66;5045318;27;96883;-83
2021/06/13 08:53:25;;;;;;;7.25;2.17;;;;;;;19.50;45.30;100736.66;5038685;27;101003;-85
2021/06/13 08:55:51;;;;;;;7.85;2.58;;;;;;;19.60;45.39;100744.91;5048725;27;101583;-81
2021/06/13 08:58:17;;;;;;;7.88;2.80;;;;;;;19.88;44.47;100742.19;5042660;27;97279;-87
2021/06/13 09:00:44;;;;;;;6.47;2.20;;;;;;;20.07;44.07;100747.16;5068854;27;96945;-86
2021/06/13 09:03:09;;;;;;;5.55;2.03;;;;;;;20.31;43.44;100738.44;5054707;27;101938;-92
2021/06/13 09:05:36;;;;;;;5.55;2.28;;;;;;;20.62;42.91;100742.53;5050195;27;101465;-91
2021/06/13 09:08:07;;;;;;;4.93;2.08;;;;;;;20.99;42.46;100740.81;5039398;27;96728;-92
2021/06/13 09:10:34;;;;;;;6.97;2.00;;;;;;;21.48;42.02;100739.97;5038055;27;97218;-92
2021/06/13 09:13:14;;;;;;;6.78;1.88;;;;;;;21.54;41.82;100751.19;5039229;27;100296;-91
2021/06/13 09:16:12;;;;;;;5.53;2.33;;;;;;;21.23;41.43;100764.94;5060599;27;101397;-92
2021/06/13 09:18:42;;;;;;;6.57;2.15;;;;;;;21.18;40.14;100755.53;5030774;27;97443;-82
2021/06/13 09:21:09;;;;;;;10.43;2.65;;;;;;;21.06;40.49;100759.06;5024159;27;96986;-84
2021/06/13 09:23:37;;;;;;;5.32;2.45;;;;;;;21.28;40.95;100761.06;5068362;27;101805;-83
2021/06/13 09:26:06;;;;;;;5.68;2.42;;;;;;;21.07;41.14;100756.28;5031302;27;97858;-85
2021/06/13 09:28:34;;;;;;;6.53;2.55;;;;;;;21.29;40.68;100765.41;5047128;27;96800;-85
2021/06/13 09:31:00;;;;;;;7.07;2.67;;;;;;;22.51;38.68;100764.38;5031474;28;97595;-84
2021/06/13 09:33:34;;;;;;;6.03;2.10;;;;;;;23.33;37.98;100758.84;5029637;27;101456;-85
2021/06/13 09:36:02;;;;;;;4.45;2.08;;;;;;;23.04;38.45;100769.22;5042528;27;98057;-84
2021/06/13 09:38:44;;;;;;;6.22;2.30;;;;;;;22.82;38.06;100773.53;5032074;27;96884;-84
2021/06/13 09:41:12;;;;;;;5.47;2.20;;;;;;;22.50;38.54;100770.69;5029109;27;98027;-84
2021/06/13 09:43:47;;;;;;;6.75;2.70;;;;;;;22.06;39.52;100782.06;5034932;27;101172;-84
2021/06/13 09:46:28;;;;;;;6.03;2.03;;;;;;;21.86;39.91;100770.19;5023577;27;96848;-85
2021/06/13 09:49:07;;;;;;;2.83;1.77;;;;;;;21.77;40.25;100773.53;5048745;27;97256;-85
2021/06/13 09:51:35;;;;;;;10.43;2.35;;;;;;;21.93;40.16;100782.09;5029309;27;97230;-84
2021/06/13 09:54:03;;;;;;;2.80;1.70;;;;;;;21.83;40.26;100781.09;5060678;27;98268;-85
2021/06/13 09:56:32;;;;;;;5.88;2.15;;;;;;;21.60;40.73;100786.31;5033276;27;101519;-82
2021/06/13 09:58:59;;;;;;;5.53;2.05;;;;;;;21.41;40.42;100781.47;5015296;27;96860;-83
2021/06/13 10:01:37;;;;;;;5.32;2.10;;;;;;;21.27;40.73;100789.56;5036527;27;97047;-83
2021/06/13 10:04:03;;;;;;;4.30;2.10;;;;;;;21.20;41.15;100790.97;5015566;27;101539;-84
2021/06/13 10:06:32;;;;;;;4.97;2.20;;;;;;;21.03;41.80;100787.69;5018541;27;102023;-83
2021/06/13 10:08:58;;;;;;;5.00;2.20;;;;;;;21.08;41.95;100790.00;5025390;27;97200;-82
2021/06/13 10:11:24;;;;;;;5.88;2.35;;;;;;;21.10;41.01;100787.25;5042164;27;97205;-82
2021/06/13 10:14:00;;;;;;;5.95;1.98;;;;;;;20.93;41.67;100793.78;5031813;27;98623;-83
2021/06/13 10:16:30;;;;;;;5.55;1.60;;;;;;;20.71;42.29;100791.72;5031217;27;101247;-82
2021/06/13 10:18:59;;;;;;;8.35;2.00;;;;;;;20.53;42.09;100796.50;5036162;27;97523;-82
2021/06/13 10:21:27;;;;;;;4.97;1.70;;;;;;;20.40;42.58;100792.97;5024118;27;97181;-83
2021/06/13 10:23:54;;;;;;;4.93;2.00;;;;;;;20.35;42.91;100795.91;5036885;27;101563;-83
2021/06/13 10:26:20;;;;;;;5.88;1.83;;;;;;;20.38;43.42;100794.88;5043660;27;100938;-83
2021/06/13 10:28:45;;;;;;;7.38;2.30;;;;;;;20.52;43.12;100801.00;5018013;27;96848;-83
2021/06/13 10:31:11;;;;;;;3.75;2.03;;;;;;;20.90;42.53;100802.00;5017478;27;98088;-83
2021/06/13 10:33:37;;;;;;;6.18;2.45;;;;;;;21.08;42.27;100795.34;5034164;27;101024;-85
2021/06/13 10:36:02;;;;;;;6.20;2.10;;;;;;;21.07;42.85;100801.66;5044775;27;98057;-85
2021/06/13 10:38:29;;;;;;;5.95;3.05;;;;;;;21.07;42.82;100804.34;5072175;27;97226;-84
2021/06/13 10:40:57;;;;;;;6.32;1.88;;;;;;;20.92;42.01;100802.75;5044436;27;97011;-84
2021/06/13 10:43:25;;;;;;;5.95;1.85;;;;;;;20.93;42.01;100799.09;5050433;27;101382;-84
2021/06/13 10:45:51;;;;;;;5.65;1.60;;;;;;;20.79;41.14;100795.56;5050963;27;100228;-84
2021/06/13 10:48:18;;;;;;;7.97;2.20;;;;;;;20.76;41.50;100803.78;5049292;27;96893;-84
2021/06/13 10:50:44;;;;;;;4.72;2.00;;;;;;;20.75;42.07;100806.56;5042424;27;97296;-84
2021/06/13 10:53:11;;;;;;;6.72;2.08;;;;;;;21.05;41.90;100800.91;5031272;27;100078;-84
2021/06/13 10:55:51;;;;;;;6.82;2.30;;;;;;;21.05;42.74;100808.91;5062533;27;98493;-84
2021/06/13 10:59:03;;;;;;;5.22;2.40;;;;;;;20.96;42.74;100813.09;5036409;27;96760;-82
2021/06/13 11:01:32;;;;;;;6.25;2.00;;;;;;;20.84;42.51;100811.28;5056978;27;97015;-83
2021/06/13 11:04:03;;;;;;;6.82;2.47;;;;;;;20.69;42.43;100812.34;5053325;27;101777;-82
2021/06/13 11:06:40;;;;;;;4.95;1.92;;;;;;;20.61;42.03;100810.19;5061350;27;98644;-83
2021/06/13 11:09:07;;;;;;;4.00;1.60;;;;;;;20.46;42.39;100817.38;5039407;27;96822;-83
2021/06/13 11:11:38;;;;;;;3.90;1.58;;;;;;;20.38;42.50;100819.69;5040782;27;97016;-83
2021/06/13 11:14:36;;;;;;;8.35;2.30;;;;;;;20.40;42.58;100814.28;5039592;27;101751;-83
2021/06/13 11:17:02;;;;;;;7.18;2.08;;;;;;;20.40;42.71;100814.28;5017378;27;97565;-81
2021/06/13 11:19:32;;;;;;;4.97;1.90;;;;;;;20.43;42.26;100819.41;5039911;27;96908;-81
2021/06/13 11:22:19;;;;;;;6.47;1.92;;;;;;;20.48;42.53;100831.47;5038115;27;96963;-81
2021/06/13 11:24:52;;;;;;;4.95;2.17;;;;;;;20.65;42.07;100832.16;5050819;27;101569;-81
2021/06/13 11:27:17;;;;;;;6.57;2.17;;;;;;;20.77;42.37;100834.00;5040338;27;101837;-81
2021/06/13 11:29:49;;;;;;;5.20;2.25;;;;;;;20.79;40.47;100819.56;5039922;27;97208;-81